createdAt,value
2019-03-20T00:00:23.256Z,102794.45
2019-03-20T00:02:51.659Z,102790.27
2019-03-20T00:05:22.806Z,102795.09
2019-03-20T00:07:51.194Z,102787.33
2019-03-20T00:10:24.458Z,102789.94
2019-03-20T00:12:52.891Z,102785.60
2019-03-20T00:15:21.355Z,102787.27
2019-03-20T00:17:49.737Z,102787.20
2019-03-20T00:20:18.226Z,102785.66
2019-03-20T00:22:47.750Z,102788.09
2019-03-20T00:25:16.256Z,102786.21
2019-03-20T00:27:44.645Z,102792.70
2019-03-20T00:30:20.596Z,102788.18
2019-03-20T00:32:49.019Z,102785.13
2019-03-20T00:35:19.972Z,102781.50
2019-03-20T00:37:48.517Z,102780.61
2019-03-20T00:40:18.053Z,102791.02
2019-03-20T00:42:46.988Z,102793.61
2019-03-20T00:45:18.128Z,102784.05
2019-03-20T00:47:46.619Z,102781.59
2019-03-20T00:50:16.457Z,102784.67
2019-03-20T00:52:44.922Z,102785.92
2019-03-20T00:55:14.397Z,102778.53
2019-03-20T00:57:43.010Z,102784.53
2019-03-20T01:00:22.907Z,102783.36
2019-03-20T01:02:51.327Z,102783.77
2019-03-20T01:05:20.716Z,102777.11
2019-03-20T01:07:50.393Z,102771.88
2019-03-20T01:10:21.323Z,102763.41
2019-03-20T01:12:50.021Z,102767.18
2019-03-20T01:15:18.691Z,102765.76
2019-03-20T01:17:47.253Z,102758.63
2019-03-20T01:20:20.453Z,102765.47
2019-03-20T01:22:49.301Z,102765.18
2019-03-20T01:25:18.460Z,102757.75
2019-03-20T01:27:46.945Z,102765.96
2019-03-20T01:30:34.056Z,102769.34
2019-03-20T01:33:14.267Z,102768.09
2019-03-20T01:35:43.095Z,102765.13
2019-03-20T01:38:14.114Z,102763.12
2019-03-20T01:40:42.520Z,102763.12
2019-03-20T01:43:10.964Z,102757.47
2019-03-20T01:45:39.737Z,102755.41
2019-03-20T01:48:08.136Z,102760.93
2019-03-20T01:50:36.654Z,102758.37
2019-03-20T01:53:07.058Z,102755.52
2019-03-20T01:55:35.518Z,102754.64
2019-03-20T01:58:04.145Z,102761.25
2019-03-20T02:00:32.799Z,102754.70
2019-03-20T02:03:01.255Z,102759.45
2019-03-20T02:05:35.945Z,102760.36
2019-03-20T02:07:59.829Z,102750.43
2019-03-20T02:10:28.453Z,102745.95
2019-03-20T02:12:58.756Z,102751.06
2019-03-20T02:15:38.124Z,102748.91
2019-03-20T02:17:57.488Z,102748.85
2019-03-20T02:20:29.755Z,102741.69
2019-03-20T02:22:58.193Z,102734.06
2019-03-20T02:25:26.598Z,102730.97
2019-03-20T02:27:54.991Z,102730.91
2019-03-20T02:30:23.539Z,102735.59
2019-03-20T02:32:51.961Z,102732.75
2019-03-20T02:35:21.461Z,102732.75
2019-03-20T02:37:49.876Z,102744.20
2019-03-20T02:40:22.118Z,102738.53
2019-03-20T02:42:55.902Z,102734.04
2019-03-20T02:45:24.327Z,102737.75
2019-03-20T02:47:52.744Z,102732.86
2019-03-20T02:50:21.189Z,102727.40
2019-03-20T02:52:49.561Z,102724.84
2019-03-20T02:55:17.952Z,102721.41
2019-03-20T02:57:46.343Z,102715.25
2019-03-20T03:00:17.174Z,102711.33
2019-03-20T03:02:45.592Z,102715.20
2019-03-20T03:05:15.788Z,102713.55
2019-03-20T03:07:44.294Z,102703.39
2019-03-20T03:10:20.334Z,102698.22
2019-03-20T03:12:48.730Z,102703.96
2019-03-20T03:15:19.670Z,102699.09
2019-03-20T03:17:49.151Z,102704.42
2019-03-20T03:20:17.576Z,102697.22
2019-03-20T03:22:48.636Z,102697.94
2019-03-20T03:25:17.038Z,102697.78
2019-03-20T03:27:45.449Z,102703.96
2019-03-20T03:30:19.052Z,102704.37
2019-03-20T03:32:48.667Z,102703.62
2019-03-20T03:35:19.510Z,102708.36
2019-03-20T03:37:47.157Z,102706.48
2019-03-20T03:40:23.642Z,102699.94
2019-03-20T03:42:52.044Z,102704.99
2019-03-20T03:45:22.090Z,102704.99
2019-03-20T03:47:50.427Z,102702.72
2019-03-20T03:50:18.813Z,102702.72
2019-03-20T03:52:47.197Z,102698.72
2019-03-20T03:55:16.670Z,102701.06
2019-03-20T03:57:45.533Z,102693.47
2019-03-20T04:00:19.057Z,102696.81
2019-03-20T04:02:50.053Z,102694.21
2019-03-20T04:05:22.276Z,102690.72
2019-03-20T04:07:50.696Z,102693.11
2019-03-20T04:10:19.204Z,102704.16
2019-03-20T04:12:47.701Z,102704.16
2019-03-20T04:15:18.961Z,102713.31
2019-03-20T04:17:49.839Z,102707.53
2019-03-20T04:20:20.140Z,102706.79
2019-03-20T04:22:48.551Z,102702.02
2019-03-20T04:25:17.077Z,102691.93
2019-03-20T04:27:45.493Z,102710.16
2019-03-20T04:30:15.239Z,102710.16
2019-03-20T04:32:43.653Z,102545.00
2019-03-20T04:35:12.450Z,102712.77
2019-03-20T04:37:45.684Z,102718.23
2019-03-20T04:40:21.159Z,102714.48
2019-03-20T04:42:53.348Z,102714.25
2019-03-20T04:45:24.223Z,102714.70
2019-03-20T04:47:55.271Z,102712.23
2019-03-20T04:50:24.180Z,102712.23
2019-03-20T04:52:52.568Z,102716.98
2019-03-20T04:55:20.970Z,102708.37
2019-03-20T04:57:49.381Z,102689.49
2019-03-20T05:00:22.718Z,102689.49
2019-03-20T05:02:51.130Z,102693.19
2019-03-20T05:05:19.585Z,102699.29
2019-03-20T05:07:49.152Z,102699.86
2019-03-20T05:10:20.786Z,102703.19
2019-03-20T05:12:51.634Z,102703.70
2019-03-20T05:15:20.009Z,102704.53
2019-03-20T05:17:48.425Z,102531.80
2019-03-20T05:20:20.811Z,102700.23
2019-03-20T05:22:52.335Z,102711.73
2019-03-20T05:25:21.817Z,102702.95
2019-03-20T05:27:50.204Z,102704.60
2019-03-20T05:30:19.051Z,102705.91
2019-03-20T05:32:51.611Z,102713.69
2019-03-20T05:35:20.047Z,102713.21
2019-03-20T05:37:48.474Z,102713.28
2019-03-20T05:40:19.807Z,102706.24
2019-03-20T05:42:48.245Z,102711.48
2019-03-20T05:45:20.758Z,102711.48
2019-03-20T05:47:48.405Z,102708.34
2019-03-20T05:50:18.974Z,102708.77
2019-03-20T05:52:48.657Z,102705.78
2019-03-20T05:55:16.965Z,102706.58
2019-03-20T05:57:45.469Z,102711.84
2019-03-20T06:00:19.783Z,102716.40
2019-03-20T06:02:48.169Z,102713.56
2019-03-20T06:05:16.595Z,102708.74
2019-03-20T06:07:45.015Z,102720.78
2019-03-20T06:10:15.525Z,102712.23
2019-03-20T06:12:44.139Z,102715.59
2019-03-20T06:15:13.589Z,102718.98
2019-03-20T06:17:41.989Z,102726.08
2019-03-20T06:20:14.686Z,102725.67
2019-03-20T06:22:43.588Z,102734.69
2019-03-20T06:25:13.623Z,102723.66
2019-03-20T06:27:42.085Z,102723.11
2019-03-20T06:30:13.679Z,102719.96
2019-03-20T06:32:42.126Z,102716.91
2019-03-20T06:35:10.940Z,102712.88
2019-03-20T06:37:41.846Z,102720.27
2019-03-20T06:40:13.949Z,102721.73
2019-03-20T06:42:46.460Z,102724.30
2019-03-20T06:45:30.028Z,102729.30
2019-03-20T06:47:58.530Z,102730.07
2019-03-20T06:52:11.877Z,102737.53
2019-03-20T06:54:42.891Z,102737.53
2019-03-20T06:58:16.722Z,102737.53
2019-03-20T07:01:00.232Z,102737.53
2019-03-20T07:03:40.792Z,102742.37
2019-03-20T07:06:25.410Z,102738.97
2019-03-20T07:09:01.778Z,102734.97
2019-03-20T07:11:29.033Z,102738.81
2019-03-20T07:13:57.428Z,102738.81
2019-03-20T07:16:25.825Z,102730.87
2019-03-20T07:18:54.247Z,102727.41
2019-03-20T07:21:22.636Z,102728.08
2019-03-20T07:23:51.041Z,102726.38
2019-03-20T07:26:19.475Z,102729.30
2019-03-20T07:28:52.020Z,102731.24
2019-03-20T07:31:19.675Z,102731.55
2019-03-20T07:33:48.065Z,102730.69
2019-03-20T07:36:16.431Z,102732.50
2019-03-20T07:38:44.821Z,102736.09
2019-03-20T07:41:13.216Z,102736.20
2019-03-20T07:43:41.664Z,102726.55
2019-03-20T07:46:10.079Z,102726.55
2019-03-20T07:48:40.660Z,102726.84
2019-03-20T07:51:17.065Z,102729.70
2019-03-20T07:53:46.021Z,102731.41
2019-03-20T07:56:16.283Z,102742.45
2019-03-20T07:59:03.943Z,102737.91
2019-03-20T08:01:32.349Z,102737.91
2019-03-20T08:04:00.783Z,102737.91
2019-03-20T08:06:29.170Z,102753.80
2019-03-20T08:08:57.700Z,102753.23
2019-03-20T08:11:26.138Z,102752.19
2019-03-20T08:13:54.533Z,102747.77
2019-03-20T08:16:22.924Z,102748.77
2019-03-20T08:18:51.607Z,102755.28
2019-03-20T08:21:25.092Z,102748.33
2019-03-20T08:23:53.477Z,102747.03
2019-03-20T08:26:26.770Z,102739.76
2019-03-20T08:28:55.162Z,102741.76
2019-03-20T08:31:23.601Z,102744.24
2019-03-20T08:33:54.294Z,102749.11
2019-03-20T08:36:22.741Z,102758.80
2019-03-20T08:38:51.110Z,102759.38
2019-03-20T08:41:19.497Z,102756.75
2019-03-20T08:43:48.011Z,102759.59
2019-03-20T08:49:13.429Z,102748.80
2019-03-20T08:51:41.811Z,102753.68
2019-03-20T08:54:10.252Z,102761.22
2019-03-20T08:56:38.695Z,102755.19
2019-03-20T08:59:07.108Z,102754.51
2019-03-20T09:01:38.143Z,102753.00
2019-03-20T09:04:06.638Z,102758.50
2019-03-20T09:06:38.925Z,102748.86
2019-03-20T09:09:08.030Z,102749.17
2019-03-20T09:11:36.407Z,102755.20
2019-03-20T09:14:04.879Z,102755.33
2019-03-20T09:16:33.333Z,102744.20
2019-03-20T09:19:01.751Z,102754.53
2019-03-20T09:21:33.050Z,102756.59
2019-03-20T09:24:01.464Z,102757.01
2019-03-20T09:26:29.874Z,102747.89
2019-03-20T09:28:58.255Z,102759.66
2019-03-20T09:31:26.667Z,102764.66
2019-03-20T09:33:55.149Z,102771.14
2019-03-20T09:36:23.595Z,102773.11
2019-03-20T09:38:53.146Z,102774.20
2019-03-20T09:41:21.578Z,102775.22
2019-03-20T09:43:51.437Z,102771.17
2019-03-20T09:46:19.831Z,102772.87
2019-03-20T09:48:48.273Z,102769.97
2019-03-20T09:51:16.712Z,102769.90
2019-03-20T09:53:46.166Z,102771.72
2019-03-20T09:56:14.613Z,102778.09
2019-03-20T09:58:43.004Z,102776.63
2019-03-20T10:01:11.420Z,102773.59
2019-03-20T10:03:43.573Z,102772.41
2019-03-20T10:06:13.074Z,102771.23
2019-03-20T10:08:41.528Z,102766.41
2019-03-20T10:11:09.919Z,102770.71
2019-03-20T10:13:38.321Z,102768.66
2019-03-20T10:16:08.495Z,102768.19
2019-03-20T10:18:36.927Z,102760.62
2019-03-20T10:21:05.416Z,102754.12
2019-03-20T10:23:37.647Z,102750.00
2019-03-20T10:26:06.049Z,102753.38
2019-03-20T10:28:38.305Z,102759.78
2019-03-20T10:31:07.825Z,102758.95
2019-03-20T10:33:36.215Z,102779.91
2019-03-20T10:36:08.748Z,102773.47
2019-03-20T10:38:36.419Z,102783.38
2019-03-20T10:41:04.935Z,102784.86
2019-03-20T10:43:33.336Z,102790.19
2019-03-20T10:46:01.936Z,102788.63
2019-03-20T10:48:30.351Z,102788.75
2019-03-20T10:50:58.765Z,102790.03
2019-03-20T10:53:27.194Z,102797.75
2019-03-20T10:55:55.604Z,102799.79
2019-03-20T10:58:27.475Z,102802.70
2019-03-20T11:00:55.093Z,102799.68
2019-03-20T11:03:23.489Z,102801.10
2019-03-20T11:05:52.990Z,102800.64
2019-03-20T11:08:21.578Z,102800.97
2019-03-20T11:10:50.178Z,102806.98
2019-03-20T11:13:18.553Z,102802.11
2019-03-20T11:15:50.930Z,102802.99
2019-03-20T11:18:20.897Z,102808.31
2019-03-20T11:20:49.304Z,102789.09
2019-03-20T11:23:17.744Z,102811.26
2019-03-20T11:25:46.164Z,102810.17
2019-03-20T11:28:14.587Z,102815.65
2019-03-20T11:30:45.676Z,102813.58
2019-03-20T11:33:14.094Z,102821.96
2019-03-20T11:35:42.681Z,102819.17
2019-03-20T11:38:12.400Z,102825.24
2019-03-20T11:40:41.766Z,102818.69
2019-03-20T11:43:12.798Z,102830.08
2019-03-20T11:45:43.820Z,102824.66
2019-03-20T11:48:11.373Z,102817.52
2019-03-20T11:50:40.848Z,102821.16
2019-03-20T11:53:10.026Z,102829.16
2019-03-20T11:55:38.767Z,102835.22
2019-03-20T11:58:08.768Z,102835.47
2019-03-20T12:00:37.179Z,102830.15
2019-03-20T12:03:11.977Z,102832.91
2019-03-20T12:05:40.969Z,102831.90
2019-03-20T12:08:09.384Z,102835.03
2019-03-20T12:10:38.747Z,102839.40
2019-03-20T12:13:07.158Z,102845.99
2019-03-20T12:15:39.186Z,102837.66
2019-03-20T12:18:07.586Z,102842.91
2019-03-20T12:20:36.990Z,102832.63
2019-03-20T12:23:05.558Z,102833.09
2019-03-20T12:25:36.036Z,102826.73
2019-03-20T12:28:04.834Z,102826.60
2019-03-20T12:30:39.932Z,102823.31
2019-03-20T12:33:07.843Z,102825.39
2019-03-20T12:35:46.589Z,102824.30
2019-03-20T12:38:15.934Z,102813.52
2019-03-20T12:40:44.415Z,102816.86
2019-03-20T12:43:12.898Z,102819.64
2019-03-20T12:45:41.405Z,102816.79
2019-03-20T12:48:12.889Z,102816.91
2019-03-20T12:50:41.322Z,102815.34
2019-03-20T12:53:18.930Z,102821.77
2019-03-20T12:55:47.404Z,102827.66
2019-03-20T12:58:15.849Z,102822.74
2019-03-20T13:05:40.223Z,102823.67
2019-03-20T13:08:08.663Z,102822.71
2019-03-20T13:10:37.112Z,102824.23
2019-03-20T13:13:05.929Z,102813.64
2019-03-20T13:15:34.318Z,102821.01
2019-03-20T13:18:06.373Z,102831.94
2019-03-20T13:20:34.795Z,102821.06
2019-03-20T13:23:06.983Z,102817.20
2019-03-20T13:25:35.392Z,102802.31
2019-03-20T13:28:03.862Z,102804.60
2019-03-20T13:30:48.916Z,102800.73
2019-03-20T13:33:25.714Z,102797.02
2019-03-20T13:35:48.086Z,102800.02
2019-03-20T13:38:19.542Z,102800.52
2019-03-20T13:40:47.979Z,102803.17
2019-03-20T13:43:16.454Z,102802.98
2019-03-20T13:45:47.582Z,102798.50
2019-03-20T13:48:21.259Z,102800.39
2019-03-20T13:50:49.654Z,102800.36
2019-03-20T13:53:19.165Z,102797.70
2019-03-20T13:55:52.624Z,102797.74
2019-03-20T13:58:22.328Z,102799.45
2019-03-20T14:00:50.772Z,102792.59
2019-03-20T14:03:20.116Z,102795.47
2019-03-20T14:05:48.599Z,102744.89
2019-03-20T14:08:17.015Z,102793.55
2019-03-20T14:10:50.442Z,102793.08
2019-03-20T14:13:15.607Z,102795.95
2019-03-20T14:15:45.276Z,102799.97
2019-03-20T14:18:13.645Z,102806.41
2019-03-20T14:20:42.083Z,102810.52
2019-03-20T14:23:12.890Z,102798.58
2019-03-20T14:25:40.635Z,102794.56
2019-03-20T14:28:09.074Z,102802.55
2019-03-20T14:30:37.471Z,102809.12
2019-03-20T14:33:05.861Z,102810.79
2019-03-20T14:35:34.325Z,102812.50
2019-03-20T14:38:02.732Z,102812.59
2019-03-20T14:40:36.005Z,102811.77
2019-03-20T14:43:02.456Z,102808.72
2019-03-20T14:45:31.076Z,102806.98
2019-03-20T14:47:59.513Z,102812.34
2019-03-20T14:50:29.422Z,102817.32
2019-03-20T14:53:17.183Z,102824.78
2019-03-20T14:55:47.933Z,102825.30
2019-03-20T14:58:15.731Z,102823.20
2019-03-20T15:00:44.180Z,102819.52
2019-03-20T15:03:12.612Z,102829.21
2019-03-20T15:05:41.087Z,102830.51
2019-03-20T15:08:09.495Z,102833.79
2019-03-20T15:10:45.685Z,102837.20
2019-03-20T15:13:08.104Z,102840.07
2019-03-20T15:15:42.741Z,102837.03
2019-03-20T15:18:11.147Z,102832.80
2019-03-20T15:20:39.571Z,102832.80
2019-03-20T15:23:08.006Z,102830.80
2019-03-20T15:25:36.424Z,102828.64
2019-03-20T15:28:05.377Z,102824.86
2019-03-20T15:30:33.903Z,102827.44
2019-03-20T15:33:02.347Z,102824.06
2019-03-20T15:35:30.767Z,102826.94
2019-03-20T15:37:59.220Z,102825.39
2019-03-20T15:40:29.715Z,102830.34
2019-03-20T15:42:58.180Z,102831.89
2019-03-20T15:45:27.668Z,102831.80
2019-03-20T15:47:56.073Z,102832.75
2019-03-20T15:50:29.213Z,102834.09
2019-03-20T15:52:57.624Z,102832.26
2019-03-20T15:55:33.069Z,102835.41
2019-03-20T15:58:01.553Z,102833.75
2019-03-20T16:00:30.194Z,102832.59
2019-03-20T16:03:13.241Z,102831.52
2019-03-20T16:05:42.208Z,102835.16
2019-03-20T16:08:10.606Z,102839.16
2019-03-20T16:10:39.096Z,102848.27
2019-03-20T16:13:08.453Z,102850.46
2019-03-20T16:15:36.888Z,102855.48
2019-03-20T16:18:05.287Z,102854.36
2019-03-20T16:20:33.684Z,102855.95
2019-03-20T16:23:02.071Z,102848.53
2019-03-20T16:25:30.919Z,102843.98
2019-03-20T16:27:59.327Z,102838.82
2019-03-20T16:30:30.117Z,102835.98
2019-03-20T16:32:58.516Z,102841.88
2019-03-20T16:35:28.760Z,102844.88
2019-03-20T16:37:57.150Z,102849.00
2019-03-20T16:40:27.284Z,102846.83
2019-03-20T16:42:56.842Z,102844.62
2019-03-20T16:45:34.385Z,102861.33
2019-03-20T16:48:03.021Z,102857.68
2019-03-20T16:50:55.322Z,102867.05
2019-03-20T16:53:28.283Z,102872.05
2019-03-20T16:55:57.055Z,102883.13
2019-03-20T16:58:25.439Z,102891.61
2019-03-20T17:00:53.879Z,102896.23
2019-03-20T17:03:26.443Z,102889.73
2019-03-20T17:05:54.949Z,102894.89
2019-03-20T17:08:23.381Z,102892.44
2019-03-20T17:10:51.815Z,102897.19
2019-03-20T17:13:20.339Z,102891.44
2019-03-20T17:15:48.763Z,102891.17
2019-03-20T17:18:19.819Z,102892.45
2019-03-20T17:20:51.635Z,102895.48
2019-03-20T17:23:24.684Z,102898.34
2019-03-20T17:25:54.448Z,102811.03
2019-03-20T17:28:22.844Z,102891.81
2019-03-20T17:30:53.723Z,102897.63
2019-03-20T17:33:26.672Z,102903.00
2019-03-20T17:35:55.108Z,102903.58
2019-03-20T17:38:23.519Z,102902.77
2019-03-20T17:41:01.288Z,102901.12
2019-03-20T17:43:29.667Z,102904.16
2019-03-20T17:45:58.068Z,102903.95
2019-03-20T17:48:26.465Z,102903.20
2019-03-20T17:50:54.901Z,102901.44
2019-03-20T17:53:24.321Z,102898.06
2019-03-20T17:55:59.601Z,102899.65
2019-03-20T17:58:26.579Z,102901.06
2019-03-20T18:00:56.677Z,102901.88
2019-03-20T18:03:25.083Z,102909.47
2019-03-20T18:05:53.497Z,102913.40
2019-03-20T18:08:26.061Z,102917.07
2019-03-20T18:10:53.201Z,102914.53
2019-03-20T18:13:25.677Z,102921.12
2019-03-20T18:15:53.326Z,102924.89
2019-03-20T18:18:21.878Z,102923.08
2019-03-20T18:20:50.322Z,102932.63
2019-03-20T18:23:18.738Z,102932.97
2019-03-20T18:25:48.937Z,102935.73
2019-03-20T18:28:21.694Z,102936.23
2019-03-20T18:30:51.238Z,102936.38
2019-03-20T18:33:21.364Z,102939.61
2019-03-20T18:35:50.241Z,102443.31
2019-03-20T18:38:33.498Z,102941.92
2019-03-20T18:41:02.061Z,102946.44
2019-03-20T18:43:32.952Z,102951.52
2019-03-20T18:46:03.953Z,102951.81
2019-03-20T18:48:36.257Z,102952.19
2019-03-20T18:51:08.777Z,102940.59
2019-03-20T18:53:37.253Z,102945.05
2019-03-20T18:56:08.118Z,102942.07
2019-03-20T18:58:36.597Z,102950.48
2019-03-20T19:01:05.195Z,102946.48
2019-03-20T19:03:36.630Z,102948.92
2019-03-20T19:06:14.685Z,102953.89
2019-03-20T19:08:43.200Z,102951.87
2019-03-20T19:11:11.723Z,102951.69
2019-03-20T19:13:40.576Z,102956.20
2019-03-20T19:16:08.981Z,102948.23
2019-03-20T19:18:39.294Z,102950.05
2019-03-20T19:21:07.699Z,102949.52
2019-03-20T19:23:37.173Z,102948.92
2019-03-20T19:26:08.337Z,102953.09
2019-03-20T19:28:36.750Z,102951.92
2019-03-20T19:31:05.345Z,102953.97
2019-03-20T19:33:33.771Z,102958.23
2019-03-20T19:36:02.167Z,102964.67
2019-03-20T19:38:34.802Z,102964.34
2019-03-20T19:41:01.390Z,102970.20
2019-03-20T19:43:30.534Z,102973.86
2019-03-20T19:45:59.086Z,102970.95
2019-03-20T19:48:29.462Z,102976.33
2019-03-20T19:50:57.614Z,102976.78
2019-03-20T19:53:26.015Z,102979.30
2019-03-20T19:55:54.441Z,102982.33
2019-03-20T19:58:22.869Z,102983.09
2019-03-20T20:00:51.313Z,102982.91
2019-03-20T20:03:20.592Z,102988.23
2019-03-20T20:05:48.993Z,102986.32
2019-03-20T20:08:17.382Z,102984.23
2019-03-20T20:10:45.828Z,102989.50
2019-03-20T20:13:14.260Z,102992.02
2019-03-20T20:15:42.705Z,102989.93
2019-03-20T20:18:11.145Z,102994.19
2019-03-20T20:20:40.536Z,102984.73
2019-03-20T20:23:08.914Z,102987.08
2019-03-20T20:25:37.366Z,102992.78
2019-03-20T20:28:06.723Z,102987.65
2019-03-20T20:30:35.139Z,102994.41
2019-03-20T20:33:03.665Z,102987.27
2019-03-20T20:35:32.054Z,102990.05
2019-03-20T20:38:00.873Z,102995.40
2019-03-20T20:40:30.407Z,102989.03
2019-03-20T20:42:58.905Z,102997.27
2019-03-20T20:45:28.485Z,102996.78
2019-03-20T20:47:56.932Z,103008.43
2019-03-20T20:50:25.323Z,103007.28
2019-03-20T20:52:53.743Z,103013.67
2019-03-20T20:55:23.105Z,103009.76
2019-03-20T20:57:51.649Z,103013.93
2019-03-20T21:00:27.039Z,103011.65
2019-03-20T21:02:55.522Z,103005.27
2019-03-20T21:05:23.938Z,103002.16
2019-03-20T21:07:53.988Z,102998.41
2019-03-20T21:10:24.418Z,103008.55
2019-03-20T21:12:56.618Z,103009.98
2019-03-20T21:15:38.405Z,103008.86
2019-03-20T21:18:15.626Z,103008.55
2019-03-20T21:20:49.947Z,103003.61
2019-03-20T21:23:39.938Z,103005.73
2019-03-20T21:26:09.615Z,103008.78
2019-03-20T21:28:53.028Z,103005.24
2019-03-20T21:31:29.134Z,103006.30
2019-03-20T21:34:19.904Z,103008.97
2019-03-20T21:37:14.399Z,103007.14
2019-03-20T21:39:45.026Z,103007.75
2019-03-20T21:42:35.211Z,103005.55
2019-03-20T21:45:33.137Z,102999.28
2019-03-20T21:48:04.537Z,103004.22
2019-03-20T21:50:53.537Z,103009.39
2019-03-20T21:53:53.771Z,103007.08
2019-03-20T21:56:29.362Z,103004.07
2019-03-20T21:59:24.491Z,103011.75
2019-03-20T22:02:36.215Z,103016.19
2019-03-20T22:05:10.066Z,103012.77
2019-03-20T22:07:41.325Z,103016.80
2019-03-20T22:10:25.310Z,103024.58
2019-03-20T22:13:17.783Z,103027.23
2019-03-20T22:16:07.709Z,103021.92
2019-03-20T22:19:31.763Z,103024.58
2019-03-20T22:22:16.443Z,103029.36
2019-03-20T22:25:21.421Z,103019.00
2019-03-20T22:28:00.274Z,103026.59
2019-03-20T22:30:28.591Z,103022.49
2019-03-20T22:33:14.719Z,103028.03
2019-03-20T22:35:46.416Z,103025.38
2019-03-20T22:38:17.894Z,103029.82
2019-03-20T22:41:22.833Z,103030.47
2019-03-20T22:43:54.307Z,103024.70
2019-03-20T22:46:37.838Z,103029.03
2019-03-20T22:49:27.727Z,103028.88
2019-03-20T22:52:19.656Z,103036.01
2019-03-20T22:55:07.427Z,103037.98
2019-03-20T22:57:41.712Z,103034.42
2019-03-20T23:00:11.064Z,103030.88
2019-03-20T23:02:54.850Z,103028.80
2019-03-20T23:05:23.261Z,103036.31
2019-03-20T23:07:51.662Z,103039.50
2019-03-20T23:10:21.138Z,103045.39
2019-03-20T23:12:50.790Z,103047.44
2019-03-20T23:15:20.826Z,103040.00
2019-03-20T23:17:51.820Z,103037.34
2019-03-20T23:20:32.263Z,103039.47
2019-03-20T23:23:01.115Z,103036.50
2019-03-20T23:25:29.573Z,103034.42
2019-03-20T23:28:00.062Z,103034.45
2019-03-20T23:30:30.602Z,103036.05
2019-03-20T23:32:59.144Z,103029.67
2019-03-20T23:35:27.537Z,103037.38
2019-03-20T23:37:55.930Z,103037.38
2019-03-20T23:40:24.350Z,103034.34
2019-03-20T23:42:56.039Z,103036.70
2019-03-20T23:45:24.635Z,103036.16
2019-03-20T23:47:57.518Z,103034.83
2019-03-20T23:50:25.997Z,103031.98
2019-03-20T23:52:54.408Z,103029.33
2019-03-20T23:55:22.819Z,103030.35
2019-03-20T23:57:51.247Z,103027.05
